Pagina principale
METAR-TAF:

METAR-TAF

Aeroporti :

Bolzano, Italia

latitudine: 46-28N, longitudine: 011-20E, altezza: 262 m

Osservazione

Il bollettino è stato emesso 27 minuti fa, alle 18:50 UTC
Vento 2 kt da direzioni variabili
Temperature 21°C
Umidità 88%
Pressione 1017 hPa
Visibilità 10 km o più
Nubi sparse ad un'altezza di 10000 ft

METAR: LIPB 191850Z VRB02KT 9999 SCT100 21/19 Q1017

Ora: 21:17 (19:17 UTC)

Previsione

Il bollettino è stato emesso 2 ore e 17 minuti fa, alle 17:00 UTC
Previsione valida dal 19 alle 18 UTC al 20 alle 18 UTC
Vento 6 kt da direzioni variabili
Visibilità 10 km o più
Nuvoloso ad un'altezza di 4000 ft
Probabilità 40% :
Temporaneamente
dal 19 alle 18 UTC al 19 alle 24 UTC
rovesci di pioggia
Probabilità 40% :
Temporaneamente
dal 20 alle 13 UTC al 20 alle 17 UTC
rovesci di pioggia,

TAF: LIPB 191700Z 1918/2018 VRB06KT 9999 BKN040 PROB40 TEMPO 1918/1924 SHRA PROB40 TEMPO 2013/2017 SHRA

Osservazioni e previsioni meteorologiche di più di 4000 aeroporti (messaggi METAR e TAF).

Le stazioni disponibili sono rappresentate dai dischi gialli e rossi sulla carta.

Puntare il mouse per vedere il nome della stazione.

Clicca sopra per visualizzare le osservazioni e previsioni meteorologiche.

Per cambiare la mappa : fare clic sui pulsanti verdi con una croce nera per ingrandire, il pulsante verde con un trattino per diminuire, o sulla freccia verde per le mappe adiacenti.


METAR-TAF: